createdAt,value
2018-07-13T00:00:14.659Z,20.30
2018-07-13T00:02:43.100Z,20.13
2018-07-13T00:05:11.345Z,20.27
2018-07-13T00:07:39.616Z,20.50
2018-07-13T00:10:07.870Z,19.53
2018-07-13T00:12:36.222Z,20.20
2018-07-13T00:15:06.978Z,21.60
2018-07-13T00:17:35.241Z,20.97
2018-07-13T00:20:03.528Z,20.27
2018-07-13T00:22:31.989Z,20.63
2018-07-13T00:25:00.253Z,20.60
2018-07-13T00:27:28.721Z,21.47
2018-07-13T00:29:56.969Z,21.07
2018-07-13T00:32:25.257Z,21.53
2018-07-13T00:34:53.524Z,20.93
2018-07-13T00:37:21.773Z,19.77
2018-07-13T00:39:50.076Z,21.23
2018-07-13T00:42:18.325Z,20.07
2018-07-13T00:44:46.609Z,21.17
2018-07-13T00:47:14.883Z,21.20
2018-07-13T00:49:43.155Z,20.53
2018-07-13T00:52:11.439Z,20.90
2018-07-13T00:54:39.809Z,20.13
2018-07-13T00:57:08.094Z,20.53
2018-07-13T00:59:36.362Z,21.50
2018-07-13T01:02:04.643Z,20.33
2018-07-13T01:04:32.917Z,20.80
2018-07-13T01:07:01.203Z,18.63
2018-07-13T01:09:29.470Z,18.43
2018-07-13T01:11:57.757Z,19.10
2018-07-13T01:14:26.036Z,19.30
2018-07-13T01:16:54.409Z,19.73
2018-07-13T01:19:22.682Z,20.10
2018-07-13T01:21:51.015Z,20.43
2018-07-13T01:24:19.316Z,20.53
2018-07-13T01:26:47.614Z,19.93
2018-07-13T01:29:15.965Z,19.77
2018-07-13T01:31:44.269Z,21.80
2018-07-13T01:34:12.544Z,21.33
2018-07-13T01:36:40.817Z,21.07
2018-07-13T01:39:11.098Z,20.33
2018-07-13T01:41:39.353Z,20.60
2018-07-13T01:44:07.723Z,21.17
2018-07-13T01:46:36.085Z,21.07
2018-07-13T01:49:04.430Z,21.30
2018-07-13T01:51:32.709Z,21.10
2018-07-13T01:54:00.998Z,20.17
2018-07-13T01:56:29.466Z,21.30
2018-07-13T01:58:57.757Z,20.37
2018-07-13T02:01:26.066Z,19.77
2018-07-13T02:03:54.384Z,20.83
2018-07-13T02:06:22.673Z,20.67
2018-07-13T02:08:51.069Z,21.40
2018-07-13T02:11:19.359Z,18.20
2018-07-13T02:13:47.734Z,18.10
2018-07-13T02:16:16.031Z,17.77
2018-07-13T02:18:44.305Z,15.53
2018-07-13T02:21:12.288Z,14.60
2018-07-13T02:23:40.597Z,16.07
2018-07-13T02:26:08.854Z,14.37
2018-07-13T02:28:37.173Z,14.50
2018-07-13T02:31:05.510Z,13.13
2018-07-13T02:33:33.787Z,13.27
2018-07-13T02:36:02.268Z,13.23
2018-07-13T02:38:30.506Z,12.73
2018-07-13T02:40:58.750Z,12.60
2018-07-13T02:43:27.038Z,12.20
2018-07-13T02:45:55.313Z,12.73
2018-07-13T02:48:23.573Z,13.67
2018-07-13T02:50:51.853Z,13.13
2018-07-13T02:53:20.214Z,12.73
2018-07-13T02:55:48.544Z,12.80
2018-07-13T02:58:16.889Z,12.93
2018-07-13T03:00:45.257Z,12.57
2018-07-13T03:03:13.642Z,13.17
2018-07-13T03:05:41.989Z,12.57
2018-07-13T03:08:10.373Z,13.53
2018-07-13T03:10:38.748Z,12.67
2018-07-13T03:13:07.107Z,14.53
2018-07-13T03:15:35.430Z,13.70
2018-07-13T03:18:03.856Z,15.07
2018-07-13T03:20:32.188Z,14.20
2018-07-13T03:23:00.574Z,13.40
2018-07-13T03:25:28.891Z,13.63
2018-07-13T03:27:57.293Z,13.97
2018-07-13T03:30:25.645Z,13.50
2018-07-13T03:32:54.236Z,14.90
2018-07-13T03:35:22.573Z,14.43
2018-07-13T03:37:51.005Z,14.70
2018-07-13T03:40:19.346Z,13.70
2018-07-13T03:42:47.871Z,14.10
2018-07-13T03:45:16.283Z,13.83
2018-07-13T03:47:44.600Z,13.83
2018-07-13T03:50:12.984Z,13.80
2018-07-13T03:52:41.332Z,14.20
2018-07-13T03:55:09.688Z,13.13
2018-07-13T03:57:38.020Z,13.30
2018-07-13T04:00:06.413Z,13.57
2018-07-13T04:02:34.780Z,14.73
2018-07-13T04:05:03.357Z,14.00
2018-07-13T04:07:31.685Z,14.67
2018-07-13T04:10:00.049Z,13.90
2018-07-13T04:12:28.421Z,14.60
2018-07-13T04:14:56.814Z,14.00
2018-07-13T04:17:25.181Z,14.57
2018-07-13T04:19:53.529Z,14.27
2018-07-13T04:22:21.884Z,14.60
2018-07-13T04:24:50.355Z,15.07
2018-07-13T04:27:18.836Z,15.53
2018-07-13T04:29:47.212Z,16.13
2018-07-13T04:32:15.577Z,15.47
2018-07-13T04:34:43.956Z,16.20
2018-07-13T04:37:12.361Z,15.13
2018-07-13T04:39:40.712Z,15.00
2018-07-13T04:42:09.430Z,15.20
2018-07-13T04:44:37.797Z,15.10
2018-07-13T04:47:06.201Z,14.47
2018-07-13T04:49:34.746Z,15.13
2018-07-13T04:52:03.144Z,15.13
2018-07-13T04:54:31.549Z,15.20
2018-07-13T04:56:59.973Z,14.43
2018-07-13T04:59:28.393Z,14.80
2018-07-13T05:01:56.512Z,15.27
2018-07-13T05:04:24.544Z,15.60
2018-07-13T05:06:53.972Z,15.77
2018-07-13T05:09:22.445Z,16.67
2018-07-13T05:11:50.840Z,15.73
2018-07-13T05:14:19.220Z,14.20
2018-07-13T05:16:47.552Z,13.13
2018-07-13T05:19:15.932Z,13.10
2018-07-13T05:21:44.424Z,13.33
2018-07-13T05:24:12.881Z,12.90
2018-07-13T05:26:41.272Z,12.70
2018-07-13T05:29:09.701Z,13.27
2018-07-13T05:31:38.429Z,12.30
2018-07-13T05:34:06.948Z,13.17
2018-07-13T05:36:35.357Z,12.50
2018-07-13T05:39:04.666Z,12.00
2018-07-13T05:41:33.110Z,12.23
2018-07-13T05:44:01.593Z,12.63
2018-07-13T05:46:30.000Z,12.10
2018-07-13T05:48:58.412Z,12.23
2018-07-13T05:51:26.523Z,12.70
2018-07-13T05:53:54.915Z,12.07
2018-07-13T05:56:23.301Z,11.47
2018-07-13T05:58:51.669Z,13.00
2018-07-13T06:01:20.265Z,11.50
2018-07-13T06:03:48.953Z,11.77
2018-07-13T06:06:17.665Z,11.70
2018-07-13T06:08:46.062Z,12.80
2018-07-13T06:11:14.628Z,11.17
2018-07-13T06:13:42.981Z,11.07
2018-07-13T06:16:11.361Z,10.50
2018-07-13T06:18:39.713Z,10.67
2018-07-13T06:21:08.176Z,10.37
2018-07-13T06:23:36.564Z,10.40
2018-07-13T06:26:04.949Z,10.27
2018-07-13T06:28:33.311Z,10.33
2018-07-13T06:31:01.670Z,10.70
2018-07-13T06:33:30.091Z,10.93
2018-07-13T06:35:58.168Z,10.97
2018-07-13T06:38:26.661Z,11.57
2018-07-13T06:40:54.997Z,11.13
2018-07-13T06:43:23.453Z,10.63
2018-07-13T06:45:51.882Z,10.50
2018-07-13T06:48:21.213Z,10.73
2018-07-13T06:50:49.692Z,11.40
2018-07-13T06:53:18.041Z,10.57
2018-07-13T06:55:46.451Z,10.50
2018-07-13T06:58:25.973Z,10.13
2018-07-13T07:00:56.712Z,10.27
2018-07-13T07:03:25.808Z,10.50
2018-07-13T07:06:12.516Z,10.73
2018-07-13T07:08:44.397Z,10.70
2018-07-13T07:11:12.893Z,10.33
2018-07-13T07:13:42.984Z,11.40
2018-07-13T07:16:11.353Z,10.23
2018-07-13T07:18:39.712Z,10.43
2018-07-13T07:21:08.292Z,10.30
2018-07-13T07:23:36.738Z,10.27
2018-07-13T07:26:05.575Z,9.63
2018-07-13T07:28:34.005Z,9.47
2018-07-13T07:31:02.909Z,9.97
2018-07-13T07:33:31.281Z,8.70
2018-07-13T07:35:59.593Z,8.73
2018-07-13T07:38:28.173Z,8.73
2018-07-13T07:40:56.482Z,8.80
2018-07-13T07:43:24.991Z,9.00
2018-07-13T07:45:53.339Z,9.90
2018-07-13T07:48:21.688Z,8.87
2018-07-13T07:50:50.261Z,8.67
2018-07-13T07:53:18.645Z,9.10
2018-07-13T07:55:47.101Z,8.43
2018-07-13T07:58:15.444Z,8.13
2018-07-13T08:00:43.821Z,8.50
2018-07-13T08:03:12.271Z,9.37
2018-07-13T08:05:40.996Z,8.10
2018-07-13T08:08:09.357Z,9.03
2018-07-13T08:10:37.779Z,8.20
2018-07-13T08:13:06.543Z,8.57
2018-07-13T08:15:34.952Z,8.90
2018-07-13T08:18:03.489Z,8.17
2018-07-13T08:20:35.114Z,8.50
2018-07-13T08:23:08.205Z,8.77
2018-07-13T08:25:37.225Z,8.93
2018-07-13T08:28:06.532Z,8.00
2018-07-13T08:30:40.007Z,8.17
2018-07-13T08:33:08.660Z,9.00
2018-07-13T08:35:37.300Z,7.10
2018-07-13T08:38:05.850Z,7.63
2018-07-13T08:40:34.409Z,7.97
2018-07-13T08:43:02.988Z,7.30
2018-07-13T08:45:31.482Z,7.80
2018-07-13T08:47:59.908Z,8.30
2018-07-13T08:50:28.974Z,7.40
2018-07-13T08:52:58.210Z,7.43
2018-07-13T08:55:26.760Z,7.77
2018-07-13T08:57:55.205Z,7.40
2018-07-13T09:00:23.624Z,8.20
2018-07-13T09:02:51.997Z,7.70
2018-07-13T09:05:20.412Z,7.27
2018-07-13T09:07:48.805Z,7.73
2018-07-13T09:10:17.384Z,7.53
2018-07-13T09:12:45.745Z,7.03
2018-07-13T09:15:14.489Z,7.43
2018-07-13T09:17:42.832Z,7.40
2018-07-13T09:20:12.421Z,7.20
2018-07-13T09:22:40.853Z,7.13
2018-07-13T09:25:09.865Z,7.63
2018-07-13T09:27:38.511Z,7.47
2018-07-13T09:30:07.485Z,8.35
2018-07-13T09:32:35.899Z,7.65
2018-07-13T09:35:04.329Z,7.12
2018-07-13T09:37:33.115Z,6.97
2018-07-13T09:40:01.481Z,6.77
2018-07-13T09:42:29.849Z,6.90
2018-07-13T09:44:58.267Z,6.70
2018-07-13T09:47:26.701Z,7.00
2018-07-13T09:49:55.027Z,7.35
2018-07-13T09:52:23.377Z,6.62
2018-07-13T09:54:51.780Z,6.25
2018-07-13T09:57:20.138Z,6.45
2018-07-13T09:59:48.555Z,7.45
2018-07-13T10:02:16.897Z,7.12
2018-07-13T10:04:45.509Z,7.47
2018-07-13T10:07:13.893Z,7.35
2018-07-13T10:09:42.347Z,7.42
2018-07-13T10:12:10.760Z,6.90
2018-07-13T10:14:39.213Z,7.30
2018-07-13T10:17:07.558Z,7.40
2018-07-13T10:19:35.962Z,7.57
2018-07-13T10:22:04.428Z,7.10
2018-07-13T10:24:34.361Z,7.40
2018-07-13T10:27:02.788Z,7.47
2018-07-13T10:29:41.765Z,7.00
2018-07-13T10:32:10.200Z,7.50
2018-07-13T10:34:38.601Z,7.20
2018-07-13T10:37:07.009Z,6.97
2018-07-13T10:39:35.357Z,8.03
2018-07-13T10:42:03.784Z,7.77
2018-07-13T10:44:32.172Z,7.63
2018-07-13T10:47:00.586Z,6.77
2018-07-13T10:49:28.933Z,6.90
2018-07-13T10:51:57.296Z,7.47
2018-07-13T10:54:25.681Z,6.70
2018-07-13T10:56:54.034Z,7.10
2018-07-13T10:59:22.648Z,7.27
2018-07-13T11:01:51.021Z,6.60
2018-07-13T11:04:19.358Z,7.20
2018-07-13T11:06:47.702Z,7.03
2018-07-13T11:09:16.045Z,6.77
2018-07-13T11:11:44.385Z,6.87
2018-07-13T11:14:12.710Z,7.17
2018-07-13T11:16:41.034Z,6.85
2018-07-13T11:19:09.369Z,7.15
2018-07-13T11:21:37.780Z,7.10
2018-07-13T11:24:06.257Z,6.45
2018-07-13T11:26:34.585Z,6.72
2018-07-13T11:29:02.965Z,7.00
2018-07-13T11:31:31.345Z,6.67
2018-07-13T11:33:59.853Z,7.00
2018-07-13T11:36:28.169Z,6.17
2018-07-13T11:38:56.559Z,7.20
2018-07-13T11:41:25.092Z,7.53
2018-07-13T11:43:53.404Z,7.33
2018-07-13T11:46:21.777Z,6.37
2018-07-13T11:48:50.154Z,6.33
2018-07-13T11:51:18.477Z,6.12
2018-07-13T11:53:46.935Z,6.40
2018-07-13T11:56:15.445Z,6.60
2018-07-13T11:58:43.805Z,6.08
2018-07-13T12:01:12.129Z,6.90
2018-07-13T12:03:40.473Z,6.25
2018-07-13T12:06:08.777Z,6.72
2018-07-13T12:08:37.328Z,6.97
2018-07-13T12:11:08.593Z,6.47
2018-07-13T12:13:37.003Z,6.58
2018-07-13T12:16:05.603Z,6.95
2018-07-13T12:18:34.004Z,6.62
2018-07-13T12:21:02.558Z,6.15
2018-07-13T12:23:30.841Z,6.20
2018-07-13T12:25:59.344Z,6.20
2018-07-13T12:28:27.647Z,6.15
2018-07-13T12:30:55.795Z,5.62
2018-07-13T12:33:24.160Z,5.83
2018-07-13T12:35:52.534Z,5.78
2018-07-13T12:38:20.909Z,6.53
2018-07-13T12:40:49.460Z,5.70
2018-07-13T12:43:17.816Z,6.78
2018-07-13T12:45:45.873Z,6.17
2018-07-13T12:48:14.241Z,6.42
2018-07-13T12:50:42.568Z,5.92
2018-07-13T12:53:10.965Z,6.75
2018-07-13T12:55:39.308Z,6.40
2018-07-13T12:58:07.694Z,6.00
2018-07-13T13:00:36.085Z,6.40
2018-07-13T13:03:04.437Z,6.17
2018-07-13T13:05:32.800Z,5.85
2018-07-13T13:08:00.811Z,5.83
2018-07-13T13:10:29.158Z,5.92
2018-07-13T13:12:57.594Z,5.70
2018-07-13T13:15:26.080Z,5.47
2018-07-13T13:17:54.422Z,5.40
2018-07-13T13:20:22.859Z,5.85
2018-07-13T13:22:51.705Z,5.80
2018-07-13T13:25:20.066Z,6.37
2018-07-13T13:27:48.556Z,5.67
2018-07-13T13:30:16.974Z,5.22
2018-07-13T13:32:45.308Z,5.30
2018-07-13T13:35:13.665Z,5.17
2018-07-13T13:37:41.997Z,5.95
2018-07-13T13:43:00.821Z,6.15
2018-07-13T13:45:28.837Z,5.22
2018-07-13T13:47:57.057Z,5.22
2018-07-13T13:50:25.325Z,5.35
2018-07-13T13:52:53.589Z,5.62
2018-07-13T13:55:21.841Z,5.47
2018-07-13T13:57:50.120Z,5.35
2018-07-13T14:00:18.394Z,5.03
2018-07-13T14:02:46.621Z,6.08
2018-07-13T14:05:14.931Z,4.65
2018-07-13T14:07:43.256Z,6.08
2018-07-13T14:10:11.542Z,4.90
2018-07-13T14:12:39.790Z,5.35
2018-07-13T14:15:08.157Z,4.95
2018-07-13T14:17:36.429Z,5.60
2018-07-13T14:20:04.794Z,5.45
2018-07-13T14:22:33.041Z,5.15
2018-07-13T14:25:01.329Z,5.40
2018-07-13T14:27:30.701Z,5.40
2018-07-13T14:29:58.949Z,5.45
2018-07-13T14:32:27.208Z,5.70
2018-07-13T14:34:55.548Z,5.83
2018-07-13T14:37:23.806Z,5.40
2018-07-13T14:39:52.139Z,5.22
2018-07-13T14:42:20.331Z,5.42
2018-07-13T14:44:48.654Z,5.87
2018-07-13T14:47:17.004Z,5.30
2018-07-13T14:49:45.177Z,4.72
2018-07-13T14:52:13.469Z,5.95
2018-07-13T14:54:41.769Z,5.17
2018-07-13T14:57:10.030Z,5.22
2018-07-13T14:59:38.437Z,5.60
2018-07-13T15:02:06.650Z,5.03
2018-07-13T15:04:34.890Z,5.67
2018-07-13T15:07:03.167Z,5.50
2018-07-13T15:09:31.409Z,5.55
2018-07-13T15:11:59.681Z,5.40
2018-07-13T15:14:27.973Z,5.25
2018-07-13T15:16:56.233Z,5.47
2018-07-13T15:19:24.547Z,5.62
2018-07-13T15:21:52.892Z,5.65
2018-07-13T15:24:21.140Z,5.58
2018-07-13T15:26:49.582Z,5.60
2018-07-13T15:29:17.972Z,5.37
2018-07-13T15:31:46.266Z,6.17
2018-07-13T15:34:14.516Z,5.63
2018-07-13T15:36:42.944Z,5.37
2018-07-13T15:39:11.340Z,6.17
2018-07-13T15:41:39.560Z,6.23
2018-07-13T15:44:07.830Z,6.33
2018-07-13T15:46:36.073Z,5.40
2018-07-13T15:49:04.393Z,5.33
2018-07-13T15:51:32.652Z,6.07
2018-07-13T15:54:00.894Z,6.20
2018-07-13T15:56:29.171Z,5.70
2018-07-13T15:58:57.451Z,5.60
2018-07-13T16:01:25.697Z,4.93
2018-07-13T16:03:53.924Z,5.33
2018-07-13T16:06:22.180Z,5.60
2018-07-13T16:08:50.476Z,5.47
2018-07-13T16:11:18.733Z,6.20
2018-07-13T16:13:47.004Z,6.00
2018-07-13T16:16:15.322Z,9.23
2018-07-13T16:18:43.522Z,5.73
2018-07-13T16:21:11.771Z,5.83
2018-07-13T16:23:40.097Z,5.60
2018-07-13T16:26:08.421Z,5.60
2018-07-13T16:28:36.926Z,5.57
2018-07-13T16:31:05.169Z,5.80
2018-07-13T16:33:33.441Z,5.70
2018-07-13T16:36:01.699Z,6.03
2018-07-13T16:38:29.941Z,5.53
2018-07-13T16:40:58.189Z,5.13
2018-07-13T16:43:26.496Z,5.60
2018-07-13T16:45:54.805Z,5.90
2018-07-13T16:48:23.097Z,5.60
2018-07-13T16:50:51.388Z,6.10
2018-07-13T16:53:19.641Z,6.43
2018-07-13T16:55:47.909Z,6.27
2018-07-13T16:58:16.197Z,6.77
2018-07-13T17:00:44.704Z,6.40
2018-07-13T17:03:13.048Z,5.77
2018-07-13T17:05:41.443Z,6.13
2018-07-13T17:08:09.677Z,6.57
2018-07-13T17:10:37.946Z,6.00
2018-07-13T17:13:06.232Z,6.40
2018-07-13T17:15:34.511Z,6.90
2018-07-13T17:18:02.824Z,6.57
2018-07-13T17:20:31.169Z,6.83
2018-07-13T17:22:59.311Z,7.70
2018-07-13T17:25:27.557Z,7.03
2018-07-13T17:27:55.884Z,7.30
2018-07-13T17:30:24.108Z,6.93
2018-07-13T17:32:52.401Z,6.97
2018-07-13T17:35:20.647Z,6.93
2018-07-13T17:37:48.985Z,6.60
2018-07-13T17:40:17.323Z,7.60
2018-07-13T17:42:45.607Z,7.30
2018-07-13T17:45:13.850Z,6.70
2018-07-13T17:47:42.133Z,6.77
2018-07-13T17:50:10.381Z,6.53
2018-07-13T17:52:38.660Z,7.00
2018-07-13T17:55:06.909Z,7.10
2018-07-13T17:57:35.151Z,7.43
2018-07-13T18:00:03.457Z,6.80
2018-07-13T18:02:31.701Z,7.07
2018-07-13T18:04:59.964Z,7.43
2018-07-13T18:07:28.177Z,7.27
2018-07-13T18:09:56.430Z,7.50
2018-07-13T18:12:24.776Z,6.97
2018-07-13T18:14:53.014Z,7.10
2018-07-13T18:17:21.247Z,6.90
2018-07-13T18:19:49.649Z,7.00
2018-07-13T18:22:17.916Z,7.13
2018-07-13T18:24:46.209Z,7.00
2018-07-13T18:27:14.451Z,7.73
2018-07-13T18:29:42.705Z,7.17
2018-07-13T18:32:10.676Z,7.30
2018-07-13T18:34:38.905Z,7.50
2018-07-13T18:37:07.177Z,6.73
2018-07-13T18:39:35.565Z,6.67
2018-07-13T18:42:03.846Z,7.50
2018-07-13T18:44:32.081Z,8.53
2018-07-13T18:47:00.373Z,7.37
2018-07-13T18:49:28.624Z,7.20
2018-07-13T18:51:56.871Z,7.93
2018-07-13T18:54:25.092Z,7.77
2018-07-13T18:56:53.368Z,7.20
2018-07-13T18:59:21.613Z,6.87
2018-07-13T19:01:49.862Z,6.10
2018-07-13T19:04:18.109Z,7.27
2018-07-13T19:06:46.384Z,7.17
2018-07-13T19:09:14.633Z,6.90
2018-07-13T19:11:42.933Z,6.50
2018-07-13T19:14:11.219Z,6.60
2018-07-13T19:16:39.448Z,6.50
2018-07-13T19:19:07.712Z,7.13
2018-07-13T19:21:35.949Z,6.57
2018-07-13T19:24:04.237Z,6.90
2018-07-13T19:26:32.484Z,6.90
2018-07-13T19:29:00.748Z,6.00
2018-07-13T19:31:29.000Z,6.33
2018-07-13T19:33:57.218Z,6.73
2018-07-13T19:36:25.536Z,6.37
2018-07-13T19:38:53.889Z,6.63
2018-07-13T19:41:22.172Z,7.00
2018-07-13T19:43:50.536Z,7.20
2018-07-13T19:46:18.771Z,6.50
2018-07-13T19:48:47.009Z,6.30
2018-07-13T19:51:15.240Z,7.00
2018-07-13T19:53:43.505Z,6.80
2018-07-13T19:56:11.744Z,7.13
2018-07-13T19:58:39.973Z,7.17
2018-07-13T20:01:08.240Z,7.10
2018-07-13T20:03:36.508Z,6.97
2018-07-13T20:06:04.785Z,7.87
2018-07-13T20:08:33.309Z,7.20
2018-07-13T20:11:01.716Z,6.57
2018-07-13T20:13:30.006Z,7.40
2018-07-13T20:15:58.265Z,6.53
2018-07-13T20:18:26.599Z,7.43
2018-07-13T20:20:55.164Z,7.33
2018-07-13T20:23:23.565Z,7.30
2018-07-13T20:25:51.857Z,6.87
2018-07-13T20:28:20.333Z,7.27
2018-07-13T20:30:48.594Z,7.57
2018-07-13T20:33:16.923Z,6.80
2018-07-13T20:35:45.353Z,6.93
2018-07-13T20:38:13.833Z,7.67
2018-07-13T20:40:42.237Z,6.97
2018-07-13T20:43:10.491Z,6.60
2018-07-13T20:45:38.876Z,7.30
2018-07-13T20:48:07.145Z,7.07
2018-07-13T20:50:35.490Z,6.53
2018-07-13T20:53:03.833Z,7.60
2018-07-13T20:55:33.649Z,7.13
2018-07-13T20:58:01.656Z,7.23
2018-07-13T21:00:29.956Z,6.53
2018-07-13T21:02:58.360Z,7.70
2018-07-13T21:05:26.629Z,6.83
2018-07-13T21:07:54.894Z,7.53
2018-07-13T21:10:23.258Z,7.97
2018-07-13T21:12:51.560Z,7.40
2018-07-13T21:15:19.889Z,7.10
2018-07-13T21:17:48.162Z,7.10
2018-07-13T21:20:17.684Z,7.47
2018-07-13T21:22:45.805Z,7.10
2018-07-13T21:25:14.124Z,8.00
2018-07-13T21:27:42.349Z,7.50
2018-07-13T21:30:10.625Z,6.93
2018-07-13T21:32:40.198Z,7.73
2018-07-13T21:35:08.524Z,7.50
2018-07-13T21:37:36.882Z,7.77
2018-07-13T21:40:05.419Z,7.80
2018-07-13T21:42:33.640Z,8.17
2018-07-13T21:45:01.970Z,8.43
2018-07-13T21:47:30.248Z,7.80
2018-07-13T21:49:58.723Z,8.93
2018-07-13T21:52:27.060Z,8.03
2018-07-13T21:54:55.357Z,8.00
2018-07-13T21:57:23.746Z,8.07
2018-07-13T21:59:52.041Z,7.53
2018-07-13T22:02:20.314Z,6.70
2018-07-13T22:04:48.569Z,8.33
2018-07-13T22:07:16.869Z,7.70
2018-07-13T22:09:45.302Z,7.90
2018-07-13T22:12:13.578Z,7.67
2018-07-13T22:14:41.850Z,7.37
2018-07-13T22:17:10.127Z,7.33
2018-07-13T22:19:38.377Z,6.57
2018-07-13T22:22:06.632Z,7.87
2018-07-13T22:24:35.017Z,7.60
2018-07-13T22:27:03.317Z,7.90
2018-07-13T22:29:31.613Z,7.53
2018-07-13T22:31:59.857Z,7.40
2018-07-13T22:34:28.115Z,6.97
2018-07-13T22:36:56.469Z,7.97
2018-07-13T22:39:24.752Z,7.57
2018-07-13T22:41:53.057Z,7.63
2018-07-13T22:44:21.375Z,7.00
2018-07-13T22:46:49.613Z,7.83
2018-07-13T22:49:17.993Z,7.07
2018-07-13T22:51:46.232Z,7.03
2018-07-13T22:54:14.492Z,7.10
2018-07-13T22:56:42.729Z,7.20
2018-07-13T22:59:11.021Z,7.33
2018-07-13T23:01:39.309Z,7.33
2018-07-13T23:04:07.777Z,7.27
2018-07-13T23:06:36.309Z,7.17
2018-07-13T23:09:05.441Z,7.60
2018-07-13T23:11:33.802Z,6.97
2018-07-13T23:14:02.164Z,6.83
2018-07-13T23:16:30.407Z,6.23
2018-07-13T23:18:58.983Z,6.97
2018-07-13T23:21:27.321Z,7.13
2018-07-13T23:23:55.629Z,6.63
2018-07-13T23:26:23.881Z,6.50
2018-07-13T23:28:52.152Z,6.47
2018-07-13T23:31:20.424Z,6.27
2018-07-13T23:33:48.709Z,6.83
2018-07-13T23:36:16.986Z,6.23
2018-07-13T23:38:45.271Z,5.93
2018-07-13T23:41:13.528Z,6.67
2018-07-13T23:43:41.816Z,6.30
2018-07-13T23:46:10.086Z,6.07
2018-07-13T23:48:38.481Z,6.13
2018-07-13T23:51:06.736Z,6.70
2018-07-13T23:53:35.033Z,5.93
2018-07-13T23:56:03.376Z,6.10
2018-07-13T23:58:31.616Z,5.97
